sensor_id;sensor_type;location;lat;lon;timestamp;pressure;altitude;pressure_sealevel;temperature;humidity
29879;BME280;16752;53.364;-1.488;2023-12-28T00:00:26;98112.00;;;15.19;46.33
29879;BME280;16752;53.364;-1.488;2023-12-28T00:03:10;98129.00;;;15.68;45.77
29879;BME280;16752;53.364;-1.488;2023-12-28T00:05:54;98113.75;;;15.63;44.94
29879;BME280;16752;53.364;-1.488;2023-12-28T00:08:38;98123.50;;;14.82;44.76
29879;BME280;16752;53.364;-1.488;2023-12-28T00:11:22;98150.66;;;14.30;44.84
29879;BME280;16752;53.364;-1.488;2023-12-28T00:14:07;98135.50;;;14.85;42.11
29879;BME280;16752;53.364;-1.488;2023-12-28T00:16:51;98165.72;;;14.45;42.53
29879;BME280;16752;53.364;-1.488;2023-12-28T00:19:35;98160.66;;;14.73;42.52
29879;BME280;16752;53.364;-1.488;2023-12-28T00:22:19;98162.50;;;14.87;41.63
29879;BME280;16752;53.364;-1.488;2023-12-28T00:25:06;98182.84;;;15.22;40.83
29879;BME280;16752;53.364;-1.488;2023-12-28T00:27:50;98187.84;;;15.17;40.86
29879;BME280;16752;53.364;-1.488;2023-12-28T00:30:34;98154.03;;;15.57;39.80
29879;BME280;16752;53.364;-1.488;2023-12-28T00:33:18;98186.06;;;15.54;40.80
29879;BME280;16752;53.364;-1.488;2023-12-28T00:36:02;98174.75;;;15.09;42.11
29879;BME280;16752;53.364;-1.488;2023-12-28T00:38:47;98191.66;;;15.29;40.87
29879;BME280;16752;53.364;-1.488;2023-12-28T00:41:31;98180.94;;;15.02;41.28
29879;BME280;16752;53.364;-1.488;2023-12-28T00:44:15;98178.94;;;14.89;40.11
29879;BME280;16752;53.364;-1.488;2023-12-28T00:46:58;98173.69;;;15.40;40.00
29879;BME280;16752;53.364;-1.488;2023-12-28T00:49:42;98192.56;;;14.92;40.73
29879;BME280;16752;53.364;-1.488;2023-12-28T00:52:26;98207.66;;;16.36;38.82
29879;BME280;16752;53.364;-1.488;2023-12-28T00:55:10;98188.19;;;15.44;40.36
29879;BME280;16752;53.364;-1.488;2023-12-28T00:57:54;98171.41;;;15.51;39.70
29879;BME280;16752;53.364;-1.488;2023-12-28T01:00:38;98187.84;;;15.32;40.69
29879;BME280;16752;53.364;-1.488;2023-12-28T01:03:23;98186.47;;;14.92;41.86
29879;BME280;16752;53.364;-1.488;2023-12-28T01:06:07;98188.00;;;15.31;41.85
29879;BME280;16752;53.364;-1.488;2023-12-28T01:08:51;98176.25;;;14.45;43.74
29879;BME280;16752;53.364;-1.488;2023-12-28T01:11:35;98162.38;;;15.24;42.73
29879;BME280;16752;53.364;-1.488;2023-12-28T01:14:19;98124.50;;;14.66;43.10
29879;BME280;16752;53.364;-1.488;2023-12-28T01:17:03;98171.75;;;15.12;43.22
29879;BME280;16752;53.364;-1.488;2023-12-28T01:19:47;98171.03;;;15.69;41.72
29879;BME280;16752;53.364;-1.488;2023-12-28T01:22:31;98156.47;;;15.73;41.86
29879;BME280;16752;53.364;-1.488;2023-12-28T01:25:15;98161.88;;;15.86;42.70
29879;BME280;16752;53.364;-1.488;2023-12-28T01:27:59;98176.94;;;15.56;43.45
29879;BME280;16752;53.364;-1.488;2023-12-28T01:30:43;98167.41;;;14.90;44.50
29879;BME280;16752;53.364;-1.488;2023-12-28T01:33:27;98168.50;;;15.61;43.20
29879;BME280;16752;53.364;-1.488;2023-12-28T01:36:18;98163.38;;;15.74;42.59
29879;BME280;16752;53.364;-1.488;2023-12-28T01:39:02;98167.75;;;15.16;43.62
29879;BME280;16752;53.364;-1.488;2023-12-28T01:41:47;98145.34;;;14.38;43.83
29879;BME280;16752;53.364;-1.488;2023-12-28T01:44:31;98141.25;;;14.36;44.70
29879;BME280;16752;53.364;-1.488;2023-12-28T01:47:16;98153.78;;;15.01;43.33
29879;BME280;16752;53.364;-1.488;2023-12-28T01:50:02;98157.47;;;16.15;41.10
29879;BME280;16752;53.364;-1.488;2023-12-28T01:52:47;98177.69;;;15.50;42.69
29879;BME280;16752;53.364;-1.488;2023-12-28T01:55:33;98172.94;;;16.18;41.54
29879;BME280;16752;53.364;-1.488;2023-12-28T01:58:18;98186.66;;;15.85;44.33
29879;BME280;16752;53.364;-1.488;2023-12-28T02:01:02;98227.84;;;13.85;50.74
29879;BME280;16752;53.364;-1.488;2023-12-28T02:03:46;98212.78;;;13.48;52.83
29879;BME280;16752;53.364;-1.488;2023-12-28T02:06:30;98208.34;;;13.40;52.63
29879;BME280;16752;53.364;-1.488;2023-12-28T02:09:14;98201.00;;;14.58;51.72
29879;BME280;16752;53.364;-1.488;2023-12-28T02:11:59;98240.00;;;13.86;53.22
29879;BME280;16752;53.364;-1.488;2023-12-28T02:14:43;98234.25;;;14.14;52.15
29879;BME280;16752;53.364;-1.488;2023-12-28T02:17:33;98199.22;;;13.28;55.34
29879;BME280;16752;53.364;-1.488;2023-12-28T02:20:20;98213.94;;;13.99;53.06
29879;BME280;16752;53.364;-1.488;2023-12-28T02:23:05;98217.22;;;14.01;52.69
29879;BME280;16752;53.364;-1.488;2023-12-28T02:25:49;98175.91;;;13.79;52.37
29879;BME280;16752;53.364;-1.488;2023-12-28T02:28:33;98189.69;;;12.47;55.15
29879;BME280;16752;53.364;-1.488;2023-12-28T02:31:32;98222.72;;;14.37;50.76
29879;BME280;16752;53.364;-1.488;2023-12-28T02:34:32;98230.09;;;14.42;50.59
29879;BME280;16752;53.364;-1.488;2023-12-28T02:37:18;98179.00;;;13.83;52.21
29879;BME280;16752;53.364;-1.488;2023-12-28T02:40:02;98229.53;;;14.70;50.18
29879;BME280;16752;53.364;-1.488;2023-12-28T02:42:47;98192.22;;;13.43;52.22
29879;BME280;16752;53.364;-1.488;2023-12-28T02:45:31;98219.22;;;14.83;49.78
29879;BME280;16752;53.364;-1.488;2023-12-28T02:48:15;98237.19;;;13.26;53.03
29879;BME280;16752;53.364;-1.488;2023-12-28T02:50:59;98245.16;;;13.40;52.83
29879;BME280;16752;53.364;-1.488;2023-12-28T02:53:43;98258.00;;;14.28;50.44
29879;BME280;16752;53.364;-1.488;2023-12-28T02:56:27;98239.66;;;14.43;50.73
29879;BME280;16752;53.364;-1.488;2023-12-28T02:59:11;98267.25;;;14.01;51.05
29879;BME280;16752;53.364;-1.488;2023-12-28T03:01:55;98284.25;;;13.52;51.70
29879;BME280;16752;53.364;-1.488;2023-12-28T03:04:39;98258.47;;;14.92;50.80
29879;BME280;16752;53.364;-1.488;2023-12-28T03:07:23;98270.34;;;14.28;50.18
29879;BME280;16752;53.364;-1.488;2023-12-28T03:10:08;98278.94;;;13.68;52.25
29879;BME280;16752;53.364;-1.488;2023-12-28T03:12:51;98246.50;;;13.75;51.37
29879;BME280;16752;53.364;-1.488;2023-12-28T03:15:35;98317.47;;;13.92;51.29
29879;BME280;16752;53.364;-1.488;2023-12-28T03:18:20;98309.03;;;14.96;49.17
29879;BME280;16752;53.364;-1.488;2023-12-28T03:21:04;98302.09;;;15.33;48.19
29879;BME280;16752;53.364;-1.488;2023-12-28T03:23:48;98292.94;;;14.91;48.34
29879;BME280;16752;53.364;-1.488;2023-12-28T03:26:32;98321.09;;;14.76;49.79
29879;BME280;16752;53.364;-1.488;2023-12-28T03:29:16;98297.69;;;15.10;48.23
29879;BME280;16752;53.364;-1.488;2023-12-28T03:32:00;98308.59;;;14.70;49.28
29879;BME280;16752;53.364;-1.488;2023-12-28T03:34:44;98351.72;;;14.77;48.60
29879;BME280;16752;53.364;-1.488;2023-12-28T03:37:28;98344.31;;;15.47;47.72
29879;BME280;16752;53.364;-1.488;2023-12-28T03:40:12;98330.34;;;15.09;47.04
29879;BME280;16752;53.364;-1.488;2023-12-28T03:42:57;98360.63;;;15.13;46.88
29879;BME280;16752;53.364;-1.488;2023-12-28T03:45:40;98332.94;;;15.32;46.75
29879;BME280;16752;53.364;-1.488;2023-12-28T03:48:24;98359.31;;;14.10;48.40
29879;BME280;16752;53.364;-1.488;2023-12-28T03:51:13;98378.59;;;15.33;46.74
29879;BME280;16752;53.364;-1.488;2023-12-28T03:53:57;98394.78;;;14.30;48.91
29879;BME280;16752;53.364;-1.488;2023-12-28T03:56:41;98385.50;;;14.96;47.17
29879;BME280;16752;53.364;-1.488;2023-12-28T03:59:27;98399.00;;;15.01;46.98
29879;BME280;16752;53.364;-1.488;2023-12-28T04:02:10;98408.19;;;15.43;46.23
29879;BME280;16752;53.364;-1.488;2023-12-28T04:04:54;98417.13;;;14.96;46.40
29879;BME280;16752;53.364;-1.488;2023-12-28T04:07:39;98366.13;;;15.64;44.52
29879;BME280;16752;53.364;-1.488;2023-12-28T04:10:32;98417.38;;;14.86;46.65
29879;BME280;16752;53.364;-1.488;2023-12-28T04:13:16;98405.25;;;15.38;45.88
29879;BME280;16752;53.364;-1.488;2023-12-28T04:16:00;98437.88;;;14.76;46.68
29879;BME280;16752;53.364;-1.488;2023-12-28T04:18:45;98387.03;;;14.67;46.10
29879;BME280;16752;53.364;-1.488;2023-12-28T04:21:29;98449.47;;;14.90;46.39
29879;BME280;16752;53.364;-1.488;2023-12-28T04:24:13;98441.72;;;14.96;46.32
29879;BME280;16752;53.364;-1.488;2023-12-28T04:26:56;98454.22;;;15.78;44.64
29879;BME280;16752;53.364;-1.488;2023-12-28T04:29:40;98471.84;;;14.94;46.92
29879;BME280;16752;53.364;-1.488;2023-12-28T04:32:24;98453.53;;;15.23;45.83
29879;BME280;16752;53.364;-1.488;2023-12-28T04:35:09;98431.28;;;15.03;45.65
29879;BME280;16752;53.364;-1.488;2023-12-28T04:37:54;98482.13;;;16.10;43.95
29879;BME280;16752;53.364;-1.488;2023-12-28T04:40:38;98463.69;;;15.72;44.65
29879;BME280;16752;53.364;-1.488;2023-12-28T04:43:22;98476.28;;;15.02;46.26
29879;BME280;16752;53.364;-1.488;2023-12-28T04:46:07;98483.84;;;15.27;45.02
29879;BME280;16752;53.364;-1.488;2023-12-28T04:48:51;98489.16;;;14.65;46.92
29879;BME280;16752;53.364;-1.488;2023-12-28T04:51:35;98456.47;;;15.28;45.54
29879;BME280;16752;53.364;-1.488;2023-12-28T04:54:19;98485.34;;;14.99;46.07
29879;BME280;16752;53.364;-1.488;2023-12-28T04:57:03;98479.72;;;15.02;45.81
29879;BME280;16752;53.364;-1.488;2023-12-28T04:59:47;98488.81;;;15.45;45.34
29879;BME280;16752;53.364;-1.488;2023-12-28T05:02:31;98482.16;;;14.81;45.76
29879;BME280;16752;53.364;-1.488;2023-12-28T05:05:15;98484.56;;;15.21;45.36
29879;BME280;16752;53.364;-1.488;2023-12-28T05:07:59;98533.25;;;14.80;45.84
29879;BME280;16752;53.364;-1.488;2023-12-28T05:10:43;98501.19;;;15.68;44.35
29879;BME280;16752;53.364;-1.488;2023-12-28T05:13:27;98520.84;;;15.65;44.34
29879;BME280;16752;53.364;-1.488;2023-12-28T05:16:11;98524.69;;;15.77;43.91
29879;BME280;16752;53.364;-1.488;2023-12-28T05:18:54;98537.94;;;15.46;44.22
29879;BME280;16752;53.364;-1.488;2023-12-28T05:21:38;98517.13;;;15.51;43.93
29879;BME280;16752;53.364;-1.488;2023-12-28T05:24:22;98511.78;;;15.97;43.55
29879;BME280;16752;53.364;-1.488;2023-12-28T05:27:07;98540.09;;;14.97;45.66
29879;BME280;16752;53.364;-1.488;2023-12-28T05:29:51;98483.81;;;14.82;45.92
29879;BME280;16752;53.364;-1.488;2023-12-28T05:32:35;98522.78;;;15.17;44.87
29879;BME280;16752;53.364;-1.488;2023-12-28T05:35:18;98510.66;;;15.62;44.14
29879;BME280;16752;53.364;-1.488;2023-12-28T05:38:03;98499.47;;;14.36;45.91
29879;BME280;16752;53.364;-1.488;2023-12-28T05:40:47;98498.22;;;14.94;44.88
29879;BME280;16752;53.364;-1.488;2023-12-28T05:43:31;98508.78;;;15.17;44.45
29879;BME280;16752;53.364;-1.488;2023-12-28T05:46:15;98538.81;;;14.54;46.12
29879;BME280;16752;53.364;-1.488;2023-12-28T05:48:59;98511.19;;;14.33;46.11
29879;BME280;16752;53.364;-1.488;2023-12-28T05:51:43;98511.84;;;14.27;46.02
29879;BME280;16752;53.364;-1.488;2023-12-28T05:54:27;98522.03;;;15.09;46.11
29879;BME280;16752;53.364;-1.488;2023-12-28T05:57:12;98521.78;;;14.64;46.05
29879;BME280;16752;53.364;-1.488;2023-12-28T05:59:56;98546.50;;;14.63;46.09
29879;BME280;16752;53.364;-1.488;2023-12-28T06:02:41;98552.66;;;14.87;46.41
29879;BME280;16752;53.364;-1.488;2023-12-28T06:05:25;98534.97;;;14.64;45.97
29879;BME280;16752;53.364;-1.488;2023-12-28T06:08:09;98574.47;;;15.35;44.72
29879;BME280;16752;53.364;-1.488;2023-12-28T06:10:55;98543.97;;;15.55;44.51
29879;BME280;16752;53.364;-1.488;2023-12-28T06:13:38;98565.06;;;14.70;46.21
29879;BME280;16752;53.364;-1.488;2023-12-28T06:16:22;98553.56;;;15.02;45.50
29879;BME280;16752;53.364;-1.488;2023-12-28T06:19:06;98563.97;;;14.95;46.05
29879;BME280;16752;53.364;-1.488;2023-12-28T06:21:50;98580.69;;;15.19;45.50
29879;BME280;16752;53.364;-1.488;2023-12-28T06:24:37;98587.72;;;14.48;46.58
29879;BME280;16752;53.364;-1.488;2023-12-28T06:27:22;98585.78;;;15.20;45.16
29879;BME280;16752;53.364;-1.488;2023-12-28T06:30:07;98568.53;;;13.91;47.86
29879;BME280;16752;53.364;-1.488;2023-12-28T06:32:52;98594.72;;;15.11;45.25
29879;BME280;16752;53.364;-1.488;2023-12-28T06:35:36;98562.56;;;15.39;44.87
29879;BME280;16752;53.364;-1.488;2023-12-28T06:38:20;98592.13;;;15.03;45.58
29879;BME280;16752;53.364;-1.488;2023-12-28T06:41:12;98582.03;;;14.76;46.51
29879;BME280;16752;53.364;-1.488;2023-12-28T06:43:56;98600.25;;;15.24;45.75
29879;BME280;16752;53.364;-1.488;2023-12-28T06:46:40;98567.88;;;14.68;46.83
29879;BME280;16752;53.364;-1.488;2023-12-28T06:49:25;98602.47;;;15.44;45.97
29879;BME280;16752;53.364;-1.488;2023-12-28T06:52:09;98612.78;;;14.03;48.37
29879;BME280;16752;53.364;-1.488;2023-12-28T06:54:53;98623.78;;;15.03;46.78
29879;BME280;16752;53.364;-1.488;2023-12-28T06:57:37;98617.56;;;14.88;46.31
29879;BME280;16752;53.364;-1.488;2023-12-28T07:00:21;98613.56;;;15.00;46.10
29879;BME280;16752;53.364;-1.488;2023-12-28T07:03:05;98628.09;;;15.81;44.59
29879;BME280;16752;53.364;-1.488;2023-12-28T07:05:49;98623.31;;;15.84;44.50
29879;BME280;16752;53.364;-1.488;2023-12-28T07:08:34;98625.94;;;16.07;43.34
29879;BME280;16752;53.364;-1.488;2023-12-28T07:11:18;98631.06;;;15.63;44.46
29879;BME280;16752;53.364;-1.488;2023-12-28T07:14:01;98634.06;;;15.52;44.26
29879;BME280;16752;53.364;-1.488;2023-12-28T07:16:45;98634.41;;;14.79;44.84
29879;BME280;16752;53.364;-1.488;2023-12-28T07:19:29;98628.28;;;15.25;43.89
29879;BME280;16752;53.364;-1.488;2023-12-28T07:22:13;98642.78;;;15.61;42.91
29879;BME280;16752;53.364;-1.488;2023-12-28T07:24:57;98624.22;;;15.46;43.17
29879;BME280;16752;53.364;-1.488;2023-12-28T07:27:41;98639.16;;;15.84;42.04
29879;BME280;16752;53.364;-1.488;2023-12-28T07:30:25;98602.38;;;14.98;42.89
29879;BME280;16752;53.364;-1.488;2023-12-28T07:33:09;98659.88;;;15.34;43.16
29879;BME280;16752;53.364;-1.488;2023-12-28T07:35:53;98674.94;;;16.10;42.86
29879;BME280;16752;53.364;-1.488;2023-12-28T07:38:37;98673.63;;;14.82;45.31
29879;BME280;16752;53.364;-1.488;2023-12-28T07:41:22;98711.03;;;15.95;42.97
29879;BME280;16752;53.364;-1.488;2023-12-28T07:44:06;98697.75;;;16.26;44.05
29879;BME280;16752;53.364;-1.488;2023-12-28T07:46:50;98640.44;;;15.57;46.17
29879;BME280;16752;53.364;-1.488;2023-12-28T07:49:34;98674.66;;;14.48;49.24
29879;BME280;16752;53.364;-1.488;2023-12-28T07:52:18;98670.19;;;14.65;48.99
29879;BME280;16752;53.364;-1.488;2023-12-28T07:55:02;98687.31;;;14.77;48.67
29879;BME280;16752;53.364;-1.488;2023-12-28T07:57:46;98695.41;;;13.44;52.90
29879;BME280;16752;53.364;-1.488;2023-12-28T08:00:30;98710.44;;;13.52;53.62
29879;BME280;16752;53.364;-1.488;2023-12-28T08:03:14;98714.78;;;13.93;52.00
29879;BME280;16752;53.364;-1.488;2023-12-28T08:05:59;98678.31;;;13.32;53.01
29879;BME280;16752;53.364;-1.488;2023-12-28T08:08:43;98723.28;;;13.21;53.63
29879;BME280;16752;53.364;-1.488;2023-12-28T08:11:28;98708.72;;;14.17;52.25
29879;BME280;16752;53.364;-1.488;2023-12-28T08:14:12;98710.44;;;13.60;52.98
29879;BME280;16752;53.364;-1.488;2023-12-28T08:16:56;98695.19;;;13.71;52.40
29879;BME280;16752;53.364;-1.488;2023-12-28T08:19:40;98689.09;;;13.87;52.30
29879;BME280;16752;53.364;-1.488;2023-12-28T08:22:23;98678.53;;;13.55;53.35
29879;BME280;16752;53.364;-1.488;2023-12-28T08:25:07;98686.31;;;14.29;51.46
29879;BME280;16752;53.364;-1.488;2023-12-28T08:27:51;98657.53;;;13.95;51.48
29879;BME280;16752;53.364;-1.488;2023-12-28T08:30:35;98691.13;;;14.18;51.33
29879;BME280;16752;53.364;-1.488;2023-12-28T08:33:19;98663.03;;;13.35;53.03
29879;BME280;16752;53.364;-1.488;2023-12-28T08:36:03;98663.47;;;14.14;51.24
29879;BME280;16752;53.364;-1.488;2023-12-28T08:38:48;98610.81;;;13.97;50.75
29879;BME280;16752;53.364;-1.488;2023-12-28T08:41:32;98665.59;;;13.19;52.57
29879;BME280;16752;53.364;-1.488;2023-12-28T08:44:16;98686.16;;;13.98;52.14
29879;BME280;16752;53.364;-1.488;2023-12-28T08:47:00;98698.38;;;14.32;51.28
29879;BME280;16752;53.364;-1.488;2023-12-28T08:49:46;98682.72;;;13.31;52.61
29879;BME280;16752;53.364;-1.488;2023-12-28T08:52:31;98695.19;;;12.95;54.12
29879;BME280;16752;53.364;-1.488;2023-12-28T08:55:15;98672.50;;;12.86;54.40
29879;BME280;16752;53.364;-1.488;2023-12-28T08:57:59;98655.03;;;13.61;52.58
29879;BME280;16752;53.364;-1.488;2023-12-28T09:00:43;98707.06;;;14.24;51.98
29879;BME280;16752;53.364;-1.488;2023-12-28T09:03:29;98699.84;;;14.51;51.21
29879;BME280;16752;53.364;-1.488;2023-12-28T09:06:13;98708.22;;;14.22;52.33
29879;BME280;16752;53.364;-1.488;2023-12-28T09:08:57;98702.94;;;13.89;52.50
29879;BME280;16752;53.364;-1.488;2023-12-28T09:11:42;98714.75;;;13.85;52.76
29879;BME280;16752;53.364;-1.488;2023-12-28T09:14:26;98669.56;;;14.47;51.03
29879;BME280;16752;53.364;-1.488;2023-12-28T09:17:11;98703.41;;;13.76;53.68
29879;BME280;16752;53.364;-1.488;2023-12-28T09:19:55;98670.19;;;14.08;51.28
29879;BME280;16752;53.364;-1.488;2023-12-28T09:22:39;98666.41;;;14.02;52.47
29879;BME280;16752;53.364;-1.488;2023-12-28T09:25:22;98637.44;;;13.86;52.05
29879;BME280;16752;53.364;-1.488;2023-12-28T09:28:08;98703.47;;;14.33;51.32
29879;BME280;16752;53.364;-1.488;2023-12-28T09:30:52;98702.25;;;13.87;52.98
29879;BME280;16752;53.364;-1.488;2023-12-28T09:33:36;98705.59;;;14.30;51.23
29879;BME280;16752;53.364;-1.488;2023-12-28T09:36:20;98690.13;;;13.94;52.24
29879;BME280;16752;53.364;-1.488;2023-12-28T09:39:04;98687.63;;;13.76;52.67
29879;BME280;16752;53.364;-1.488;2023-12-28T09:42:00;98693.09;;;13.99;51.92
29879;BME280;16752;53.364;-1.488;2023-12-28T09:44:48;98682.91;;;14.45;51.72
29879;BME280;16752;53.364;-1.488;2023-12-28T09:47:33;98678.22;;;14.80;50.00
29879;BME280;16752;53.364;-1.488;2023-12-28T09:50:18;98709.38;;;14.76;51.23
29879;BME280;16752;53.364;-1.488;2023-12-28T09:53:03;98692.09;;;14.25;51.66
29879;BME280;16752;53.364;-1.488;2023-12-28T09:55:47;98691.06;;;14.75;50.37
29879;BME280;16752;53.364;-1.488;2023-12-28T09:58:33;98684.88;;;14.43;50.49
29879;BME280;16752;53.364;-1.488;2023-12-28T10:01:19;98709.50;;;14.99;49.67
29879;BME280;16752;53.364;-1.488;2023-12-28T10:04:03;98695.69;;;14.73;51.00
29879;BME280;16752;53.364;-1.488;2023-12-28T10:06:47;98714.97;;;14.81;50.14
29879;BME280;16752;53.364;-1.488;2023-12-28T10:09:31;98724.09;;;15.18;49.67
29879;BME280;16752;53.364;-1.488;2023-12-28T10:12:17;98709.25;;;15.17;49.52
29879;BME280;16752;53.364;-1.488;2023-12-28T10:15:01;98708.94;;;15.59;48.54
29879;BME280;16752;53.364;-1.488;2023-12-28T10:17:46;98645.31;;;14.67;49.56
29879;BME280;16752;53.364;-1.488;2023-12-28T10:20:31;98705.47;;;15.89;48.01
29879;BME280;16752;53.364;-1.488;2023-12-28T10:23:15;98678.84;;;14.98;49.30
29879;BME280;16752;53.364;-1.488;2023-12-28T10:25:59;98711.00;;;15.41;48.25
29879;BME280;16752;53.364;-1.488;2023-12-28T10:28:44;98654.53;;;15.19;48.83
29879;BME280;16752;53.364;-1.488;2023-12-28T10:31:29;98685.31;;;15.57;47.73
29879;BME280;16752;53.364;-1.488;2023-12-28T10:34:13;98699.97;;;14.82;50.13
29879;BME280;16752;53.364;-1.488;2023-12-28T10:36:59;98685.50;;;14.70;49.91
29879;BME280;16752;53.364;-1.488;2023-12-28T10:39:48;98696.41;;;15.22;49.68
29879;BME280;16752;53.364;-1.488;2023-12-28T10:42:37;98643.88;;;13.75;52.39
29879;BME280;16752;53.364;-1.488;2023-12-28T10:45:30;98670.19;;;15.12;50.43
29879;BME280;16752;53.364;-1.488;2023-12-28T10:48:20;98690.13;;;15.62;50.00
29879;BME280;16752;53.364;-1.488;2023-12-28T10:51:06;98690.13;;;15.54;49.71
29879;BME280;16752;53.364;-1.488;2023-12-28T11:00:12;98634.03;;;15.29;50.97
29879;BME280;16752;53.364;-1.488;2023-12-28T11:03:02;98665.97;;;15.42;50.96
29879;BME280;16752;53.364;-1.488;2023-12-28T11:05:46;98664.41;;;14.78;52.31
29879;BME280;16752;53.364;-1.488;2023-12-28T11:08:34;98637.22;;;14.69;51.08
29879;BME280;16752;53.364;-1.488;2023-12-28T11:11:19;98612.34;;;14.80;51.25
29879;BME280;16752;53.364;-1.488;2023-12-28T11:14:07;98605.00;;;15.29;49.88
29879;BME280;16752;53.364;-1.488;2023-12-28T11:16:53;98640.91;;;14.03;52.93
29879;BME280;16752;53.364;-1.488;2023-12-28T11:19:38;98603.19;;;14.27;52.23
29879;BME280;16752;53.364;-1.488;2023-12-28T11:22:23;98606.06;;;14.81;50.79
29879;BME280;16752;53.364;-1.488;2023-12-28T11:25:18;98607.03;;;14.88;50.90
29879;BME280;16752;53.364;-1.488;2023-12-28T11:28:09;98601.84;;;15.03;49.97
29879;BME280;16752;53.364;-1.488;2023-12-28T11:30:53;98603.78;;;14.78;50.56
29879;BME280;16752;53.364;-1.488;2023-12-28T11:33:50;98616.44;;;15.21;48.96
29879;BME280;16752;53.364;-1.488;2023-12-28T11:36:44;98606.28;;;15.41;50.43
29879;BME280;16752;53.364;-1.488;2023-12-28T11:39:32;98460.22;;;14.10;50.96
29879;BME280;16752;53.364;-1.488;2023-12-28T11:42:20;98550.53;;;14.82;51.66
29879;BME280;16752;53.364;-1.488;2023-12-28T11:45:05;98575.28;;;15.58;50.56
29879;BME280;16752;53.364;-1.488;2023-12-28T11:48:00;98572.97;;;15.40;50.74
29879;BME280;16752;53.364;-1.488;2023-12-28T11:50:44;98571.56;;;14.98;52.10
29879;BME280;16752;53.364;-1.488;2023-12-28T11:53:28;98538.88;;;15.31;51.18
29879;BME280;16752;53.364;-1.488;2023-12-28T11:56:15;98529.47;;;15.05;52.39
29879;BME280;16752;53.364;-1.488;2023-12-28T11:58:59;98558.81;;;14.71;53.33
29879;BME280;16752;53.364;-1.488;2023-12-28T12:01:43;98548.47;;;14.61;53.74
29879;BME280;16752;53.364;-1.488;2023-12-28T12:04:27;98564.69;;;14.34;53.52
29879;BME280;16752;53.364;-1.488;2023-12-28T12:07:11;98561.06;;;14.27;54.86
29879;BME280;16752;53.364;-1.488;2023-12-28T12:09:59;98560.75;;;14.22;55.00
29879;BME280;16752;53.364;-1.488;2023-12-28T12:12:43;98554.47;;;14.31;56.06
29879;BME280;16752;53.364;-1.488;2023-12-28T12:15:29;98516.94;;;15.30;52.60
29879;BME280;16752;53.364;-1.488;2023-12-28T12:18:13;98528.72;;;14.96;52.47
29879;BME280;16752;53.364;-1.488;2023-12-28T12:20:57;98526.38;;;14.07;53.81
29879;BME280;16752;53.364;-1.488;2023-12-28T12:23:42;98515.38;;;14.59;54.44
29879;BME280;16752;53.364;-1.488;2023-12-28T12:26:28;98513.44;;;13.57;55.33
29879;BME280;16752;53.364;-1.488;2023-12-28T12:29:14;98510.88;;;14.76;51.92
29879;BME280;16752;53.364;-1.488;2023-12-28T12:31:58;98518.13;;;15.27;51.76
29879;BME280;16752;53.364;-1.488;2023-12-28T12:34:42;98513.13;;;14.40;53.21
29879;BME280;16752;53.364;-1.488;2023-12-28T12:37:26;98499.56;;;15.21;52.00
29879;BME280;16752;53.364;-1.488;2023-12-28T12:40:11;98449.91;;;15.24;50.97
29879;BME280;16752;53.364;-1.488;2023-12-28T12:42:56;98445.16;;;14.97;51.41
29879;BME280;16752;53.364;-1.488;2023-12-28T12:45:40;98483.38;;;15.24;50.58
29879;BME280;16752;53.364;-1.488;2023-12-28T12:48:24;98483.22;;;15.17;50.10
29879;BME280;16752;53.364;-1.488;2023-12-28T12:51:09;98439.88;;;15.20;49.98
29879;BME280;16752;53.364;-1.488;2023-12-28T12:53:57;98451.44;;;15.19;49.78
29879;BME280;16752;53.364;-1.488;2023-12-28T12:56:42;98474.41;;;14.48;50.78
29879;BME280;16752;53.364;-1.488;2023-12-28T12:59:29;98448.41;;;14.45;51.39
29879;BME280;16752;53.364;-1.488;2023-12-28T13:02:14;98402.38;;;14.64;49.98
29879;BME280;16752;53.364;-1.488;2023-12-28T13:05:00;98452.25;;;15.19;49.92
29879;BME280;16752;53.364;-1.488;2023-12-28T13:07:45;98425.28;;;15.09;50.04
29879;BME280;16752;53.364;-1.488;2023-12-28T13:10:28;98430.72;;;15.31;49.23
29879;BME280;16752;53.364;-1.488;2023-12-28T13:13:12;98437.31;;;15.49;48.68
29879;BME280;16752;53.364;-1.488;2023-12-28T13:15:57;98423.31;;;15.49;48.21
29879;BME280;16752;53.364;-1.488;2023-12-28T13:18:41;98396.41;;;15.68;48.92
29879;BME280;16752;53.364;-1.488;2023-12-28T13:21:25;98435.75;;;15.40;49.42
29879;BME280;16752;53.364;-1.488;2023-12-28T13:24:09;98418.38;;;15.08;51.18
29879;BME280;16752;53.364;-1.488;2023-12-28T13:26:53;98408.47;;;14.64;51.67
29879;BME280;16752;53.364;-1.488;2023-12-28T13:29:36;98403.78;;;15.20;51.07
29879;BME280;16752;53.364;-1.488;2023-12-28T13:32:20;98416.44;;;14.56;52.04
29879;BME280;16752;53.364;-1.488;2023-12-28T13:35:07;98421.16;;;15.29;51.24
29879;BME280;16752;53.364;-1.488;2023-12-28T13:37:51;98368.28;;;14.62;51.42
29879;BME280;16752;53.364;-1.488;2023-12-28T13:40:35;98413.97;;;15.61;50.26
29879;BME280;16752;53.364;-1.488;2023-12-28T13:43:20;98436.38;;;14.82;52.20
29879;BME280;16752;53.364;-1.488;2023-12-28T13:46:04;98433.38;;;14.85;53.32
29879;BME280;16752;53.364;-1.488;2023-12-28T13:48:48;98437.06;;;15.21;52.65
29879;BME280;16752;53.364;-1.488;2023-12-28T13:51:33;98425.53;;;15.22;52.78
29879;BME280;16752;53.364;-1.488;2023-12-28T13:54:17;98405.25;;;15.75;52.47
29879;BME280;16752;53.364;-1.488;2023-12-28T13:57:03;98404.56;;;15.44;53.26
29879;BME280;16752;53.364;-1.488;2023-12-28T13:59:47;98399.97;;;15.23;53.56
29879;BME280;16752;53.364;-1.488;2023-12-28T14:02:31;98381.38;;;14.17;55.17
29879;BME280;16752;53.364;-1.488;2023-12-28T14:05:15;98407.56;;;14.72;54.39
29879;BME280;16752;53.364;-1.488;2023-12-28T14:07:59;98373.28;;;15.70;51.99
29879;BME280;16752;53.364;-1.488;2023-12-28T14:10:43;98410.84;;;15.43;52.71
29879;BME280;16752;53.364;-1.488;2023-12-28T14:13:27;98418.06;;;15.78;52.47
29879;BME280;16752;53.364;-1.488;2023-12-28T14:16:12;98437.22;;;15.57;52.71
29879;BME280;16752;53.364;-1.488;2023-12-28T14:18:56;98435.72;;;15.03;53.30
29879;BME280;16752;53.364;-1.488;2023-12-28T14:21:40;98425.19;;;15.78;51.63
29879;BME280;16752;53.364;-1.488;2023-12-28T14:24:24;98396.41;;;15.83;50.81
29879;BME280;16752;53.364;-1.488;2023-12-28T14:27:12;98408.16;;;15.80;50.54